createdAt,value
2018-02-14T00:01:05.448Z,74.44
2018-02-14T00:04:08.736Z,74.43
2018-02-14T00:07:12.008Z,75.50
2018-02-14T00:10:26.880Z,75.07
2018-02-14T00:13:31.260Z,75.03
2018-02-14T00:16:34.525Z,76.29
2018-02-14T00:19:37.890Z,74.04
2018-02-14T00:22:50.647Z,74.03
2018-02-14T00:25:55.870Z,74.78
2018-02-14T00:28:59.265Z,76.41
2018-02-14T00:32:02.538Z,76.59
2018-02-14T00:35:06.671Z,76.83
2018-02-14T00:38:09.934Z,76.78
2018-02-14T00:41:13.972Z,76.30
2018-02-14T00:44:18.310Z,75.57
2018-02-14T00:47:21.665Z,75.53
2018-02-14T00:50:25.033Z,75.30
2018-02-14T00:53:28.305Z,75.88
2018-02-14T00:56:32.502Z,75.55
2018-02-14T00:59:36.544Z,75.98
2018-02-14T01:02:39.804Z,75.43
2018-02-14T01:05:43.167Z,75.75
2018-02-14T01:08:46.446Z,75.73
2018-02-14T01:11:49.722Z,75.51
2018-02-14T01:14:53.753Z,75.61
2018-02-14T01:17:57.025Z,75.74
2018-02-14T01:21:01.309Z,75.81
2018-02-14T01:24:04.681Z,75.48
2018-02-14T01:27:07.972Z,75.15
2018-02-14T01:30:11.253Z,74.84
2018-02-14T01:33:15.312Z,75.38
2018-02-14T01:36:18.591Z,75.22
2018-02-14T01:39:21.860Z,74.91
2018-02-14T01:42:25.155Z,74.86
2018-02-14T01:45:28.431Z,74.84
2018-02-14T01:48:31.729Z,75.07
2018-02-14T01:51:35.035Z,75.04
2018-02-14T01:54:39.095Z,77.14
2018-02-14T01:57:42.532Z,75.03
2018-02-14T02:00:45.824Z,74.38
2018-02-14T02:03:49.151Z,74.69
2018-02-14T02:06:53.188Z,74.80
2018-02-14T02:09:56.484Z,75.23
2018-02-14T02:12:59.760Z,75.58
2018-02-14T02:16:05.427Z,74.99
2018-02-14T02:19:08.689Z,74.60
2018-02-14T02:22:11.974Z,75.23
2018-02-14T02:25:15.259Z,74.82
2018-02-14T02:28:18.539Z,74.51
2018-02-14T02:31:21.807Z,74.82
2018-02-14T02:34:25.839Z,75.18
2018-02-14T02:37:29.114Z,74.08
2018-02-14T02:40:33.148Z,73.80
2018-02-14T02:43:36.424Z,74.04
2018-02-14T02:46:40.505Z,74.33
2018-02-14T02:49:43.777Z,74.25
2018-02-14T02:52:47.155Z,74.50
2018-02-14T02:55:50.490Z,74.51
2018-02-14T02:58:53.865Z,74.47
2018-02-14T03:01:57.416Z,74.33
2018-02-14T03:05:00.698Z,74.14
2018-02-14T03:08:03.973Z,74.07
2018-02-14T03:11:07.262Z,74.08
2018-02-14T03:14:10.558Z,74.66
2018-02-14T03:17:13.813Z,74.69
2018-02-14T03:20:17.855Z,74.19
2018-02-14T03:23:21.120Z,73.92
2018-02-14T03:26:24.408Z,73.98
2018-02-14T03:29:27.908Z,73.67
2018-02-14T03:32:31.196Z,74.43
2018-02-14T03:35:34.541Z,74.19
2018-02-14T03:38:38.715Z,73.54
2018-02-14T03:41:42.795Z,73.69
2018-02-14T03:44:46.176Z,73.54
2018-02-14T03:47:50.213Z,74.10
2018-02-14T03:50:53.487Z,73.32
2018-02-14T03:53:56.761Z,73.09
2018-02-14T03:57:00.039Z,72.92
2018-02-14T04:00:03.435Z,72.58
2018-02-14T04:03:06.779Z,72.75
2018-02-14T04:06:10.052Z,73.12
2018-02-14T04:09:13.324Z,73.49
2018-02-14T04:12:16.590Z,73.80
2018-02-14T04:15:19.855Z,72.58
2018-02-14T04:18:24.516Z,72.86
2018-02-14T04:21:27.811Z,73.63
2018-02-14T04:24:31.071Z,72.69
2018-02-14T04:27:34.398Z,72.99
2018-02-14T04:30:39.687Z,73.53
2018-02-14T04:33:42.952Z,73.25
2018-02-14T04:36:47.314Z,73.40
2018-02-14T04:39:50.651Z,73.58
2018-02-14T04:42:54.696Z,73.63
2018-02-14T04:45:58.012Z,73.58
2018-02-14T04:49:01.292Z,73.10
2018-02-14T04:52:04.590Z,73.11
2018-02-14T04:55:07.867Z,72.62
2018-02-14T04:58:11.163Z,73.07
2018-02-14T05:01:14.474Z,72.48
2018-02-14T05:04:17.769Z,72.19
2018-02-14T05:07:21.060Z,72.39
2018-02-14T05:10:24.342Z,72.46
2018-02-14T05:13:28.381Z,72.76
2018-02-14T05:16:31.674Z,72.59
2018-02-14T05:19:34.972Z,73.17
2018-02-14T05:22:38.249Z,73.18
2018-02-14T05:25:42.289Z,73.29
2018-02-14T05:28:45.574Z,72.97
2018-02-14T05:31:48.968Z,72.55
2018-02-14T05:34:53.024Z,72.72
2018-02-14T05:37:56.317Z,72.30
2018-02-14T05:40:59.738Z,72.27
2018-02-14T05:44:03.230Z,72.19
2018-02-14T05:47:06.513Z,72.28
2018-02-14T05:50:09.800Z,72.31
2018-02-14T05:53:13.208Z,72.44
2018-02-14T05:56:16.479Z,72.35
2018-02-14T05:59:19.740Z,72.13
2018-02-14T06:02:23.019Z,71.63
2018-02-14T06:05:26.279Z,72.02
2018-02-14T06:08:29.763Z,73.00
2018-02-14T06:11:33.811Z,72.12
2018-02-14T06:14:37.084Z,73.10
2018-02-14T06:17:40.403Z,72.99
2018-02-14T06:20:43.680Z,72.27
2018-02-14T06:23:47.021Z,72.23
2018-02-14T06:26:50.302Z,72.31
2018-02-14T06:29:53.672Z,72.05
2018-02-14T06:32:56.969Z,72.00
2018-02-14T06:36:00.758Z,71.81
2018-02-14T06:39:04.905Z,71.90
2018-02-14T06:42:08.318Z,72.41
2018-02-14T06:45:11.581Z,71.84
2018-02-14T06:48:15.687Z,71.91
2018-02-14T06:51:19.791Z,71.60
2018-02-14T06:54:23.072Z,71.17
2018-02-14T06:57:26.352Z,71.56
2018-02-14T07:00:29.732Z,72.30
2018-02-14T07:03:33.004Z,72.89
2018-02-14T07:06:37.070Z,71.78
2018-02-14T07:09:40.451Z,71.47
2018-02-14T07:12:43.760Z,71.75
2018-02-14T07:15:47.028Z,71.90
2018-02-14T07:18:50.300Z,71.64
2018-02-14T07:21:53.893Z,71.77
2018-02-14T07:24:57.164Z,70.36
2018-02-14T07:28:00.428Z,69.68
2018-02-14T07:31:03.852Z,69.18
2018-02-14T07:34:07.145Z,68.95
2018-02-14T07:37:10.540Z,68.09
2018-02-14T07:40:14.053Z,68.67
2018-02-14T07:43:17.430Z,69.17
2018-02-14T07:46:20.749Z,70.73
2018-02-14T07:49:25.536Z,69.65
2018-02-14T07:52:29.473Z,68.23
2018-02-14T07:55:32.916Z,68.40
2018-02-14T07:58:36.262Z,67.31
2018-02-14T08:01:39.571Z,67.45
2018-02-14T08:04:43.656Z,67.57
2018-02-14T08:07:48.838Z,67.97
2018-02-14T08:10:52.205Z,68.26
2018-02-14T08:13:55.473Z,66.97
2018-02-14T08:16:59.696Z,68.84
2018-02-14T08:20:03.132Z,68.12
2018-02-14T08:23:07.247Z,68.11
2018-02-14T08:26:11.286Z,65.97
2018-02-14T08:29:14.557Z,67.28
2018-02-14T08:32:18.625Z,65.67
2018-02-14T08:35:21.988Z,65.61
2018-02-14T08:38:25.293Z,67.02
2018-02-14T08:41:28.592Z,67.14
2018-02-14T08:44:31.889Z,66.98
2018-02-14T08:47:35.930Z,65.95
2018-02-14T08:50:39.300Z,67.07
2018-02-14T08:53:43.347Z,65.30
2018-02-14T08:56:46.643Z,65.81
2018-02-14T08:59:49.968Z,66.56
2018-02-14T09:02:54.169Z,65.29
2018-02-14T09:05:57.397Z,64.86
2018-02-14T09:09:00.684Z,63.99
2018-02-14T09:12:04.136Z,62.63
2018-02-14T09:15:08.341Z,65.93
2018-02-14T09:18:12.386Z,63.54
2018-02-14T09:21:15.661Z,62.65
2018-02-14T09:24:21.743Z,63.37
2018-02-14T09:27:25.073Z,65.69
2018-02-14T09:30:28.480Z,63.62
2018-02-14T09:33:31.774Z,63.06
2018-02-14T09:36:35.336Z,61.96
2018-02-14T09:39:38.682Z,62.37
2018-02-14T09:42:41.975Z,62.21
2018-02-14T09:45:45.234Z,62.01
2018-02-14T09:48:48.513Z,60.35
2018-02-14T09:51:52.572Z,63.02
2018-02-14T09:54:55.856Z,62.10
2018-02-14T09:57:59.175Z,60.05
2018-02-14T10:01:02.501Z,62.11
2018-02-14T10:04:05.809Z,62.14
2018-02-14T10:07:09.274Z,61.18
2018-02-14T10:10:12.559Z,59.62
2018-02-14T10:13:16.599Z,62.21
2018-02-14T10:16:19.932Z,62.07
2018-02-14T10:19:24.004Z,62.11
2018-02-14T10:22:28.106Z,63.73
2018-02-14T10:25:32.170Z,61.63
2018-02-14T10:28:35.440Z,60.28
2018-02-14T10:31:38.732Z,58.31
2018-02-14T10:34:42.041Z,59.27
2018-02-14T10:37:45.832Z,56.50
2018-02-14T10:40:49.945Z,57.82
2018-02-14T10:43:53.976Z,58.98
2018-02-14T10:46:57.276Z,59.93
2018-02-14T10:50:04.878Z,59.87
2018-02-14T10:53:08.190Z,58.81
2018-02-14T10:56:11.520Z,59.79
2018-02-14T10:59:15.672Z,59.33
2018-02-14T11:02:18.937Z,59.40
2018-02-14T11:05:28.939Z,59.22
2018-02-14T11:08:32.236Z,59.75
2018-02-14T11:11:35.585Z,59.04
2018-02-14T11:14:38.864Z,58.61
2018-02-14T11:17:42.168Z,60.22
2018-02-14T11:20:45.494Z,60.24
2018-02-14T11:23:48.764Z,59.98
2018-02-14T11:26:52.310Z,59.58
2018-02-14T11:29:55.667Z,59.86
2018-02-14T11:32:59.524Z,59.76
2018-02-14T11:36:03.040Z,57.63
2018-02-14T11:39:06.345Z,58.26
2018-02-14T11:42:09.742Z,57.64
2018-02-14T11:45:13.020Z,58.13
2018-02-14T11:48:17.129Z,57.50
2018-02-14T11:51:20.497Z,57.89
2018-02-14T11:54:24.257Z,58.06
2018-02-14T11:57:27.534Z,57.42
2018-02-14T12:00:31.584Z,57.41
2018-02-14T12:03:34.871Z,57.86
2018-02-14T12:06:38.172Z,57.57
2018-02-14T12:09:41.773Z,58.37
2018-02-14T12:12:45.452Z,57.17
2018-02-14T12:15:49.514Z,57.14
2018-02-14T12:18:54.260Z,56.88
2018-02-14T12:21:57.560Z,57.41
2018-02-14T12:25:00.970Z,56.29
2018-02-14T12:28:04.462Z,56.52
2018-02-14T12:31:07.767Z,62.65
2018-02-14T12:34:11.104Z,62.65
2018-02-14T12:37:15.146Z,57.70
2018-02-14T12:40:18.427Z,57.48
2018-02-14T12:43:21.724Z,57.94
2018-02-14T12:46:26.060Z,63.05
2018-02-14T12:49:30.181Z,64.11
2018-02-14T12:52:33.769Z,60.20
2018-02-14T12:55:37.093Z,57.84
2018-02-14T12:58:40.344Z,59.30
2018-02-14T13:01:44.385Z,55.93
2018-02-14T13:04:47.660Z,55.78
2018-02-14T13:07:50.917Z,55.21
2018-02-14T13:10:54.271Z,53.83
2018-02-14T13:13:58.317Z,54.15
2018-02-14T13:17:01.576Z,54.95
2018-02-14T13:20:05.961Z,55.15
2018-02-14T13:23:09.243Z,54.51
2018-02-14T13:26:12.496Z,53.76
2018-02-14T13:29:16.523Z,54.24
2018-02-14T13:32:20.705Z,54.54
2018-02-14T13:35:23.977Z,56.13
2018-02-14T13:38:27.262Z,53.83
2018-02-14T13:41:30.542Z,52.84
2018-02-14T13:44:33.851Z,52.75
2018-02-14T13:47:37.178Z,54.38
2018-02-14T13:50:40.454Z,55.51
2018-02-14T13:53:43.817Z,55.65
2018-02-14T13:56:47.840Z,54.96
2018-02-14T13:59:51.961Z,53.89
2018-02-14T14:02:55.250Z,54.58
2018-02-14T14:05:59.272Z,54.32
2018-02-14T14:09:02.735Z,53.65
2018-02-14T14:12:06.173Z,53.22
2018-02-14T14:15:09.470Z,52.76
2018-02-14T14:18:12.758Z,52.41
2018-02-14T14:21:16.084Z,52.19
2018-02-14T14:24:19.346Z,51.64
2018-02-14T14:27:23.379Z,52.84
2018-02-14T14:30:28.122Z,52.37
2018-02-14T14:33:31.421Z,52.28
2018-02-14T14:36:34.858Z,52.34
2018-02-14T14:39:38.162Z,52.17
2018-02-14T14:42:41.430Z,52.68
2018-02-14T14:45:44.704Z,52.75
2018-02-14T14:48:48.021Z,53.66
2018-02-14T14:51:52.071Z,53.45
2018-02-14T14:54:55.355Z,54.43
2018-02-14T14:57:58.610Z,54.04
2018-02-14T15:01:01.912Z,55.51
2018-02-14T15:04:05.308Z,55.71
2018-02-14T15:07:08.730Z,55.48
2018-02-14T15:10:12.116Z,56.63
2018-02-14T15:13:15.604Z,55.99
2018-02-14T15:16:19.644Z,55.43
2018-02-14T15:19:22.958Z,56.22
2018-02-14T15:22:26.234Z,54.55
2018-02-14T15:25:29.501Z,54.69
2018-02-14T15:28:33.612Z,55.29
2018-02-14T15:31:36.891Z,55.55
2018-02-14T15:34:40.156Z,56.67
2018-02-14T15:37:43.477Z,57.36
2018-02-14T15:40:46.741Z,57.32
2018-02-14T15:43:50.069Z,57.46
2018-02-14T15:46:53.376Z,57.78
2018-02-14T15:49:56.644Z,58.77
2018-02-14T15:53:00.136Z,59.49
2018-02-14T15:56:03.424Z,59.76
2018-02-14T15:59:06.834Z,60.29
2018-02-14T16:02:10.145Z,60.30
2018-02-14T16:05:13.540Z,60.71
2018-02-14T16:08:16.909Z,60.86
2018-02-14T16:11:21.372Z,61.12
2018-02-14T16:14:24.700Z,62.08
2018-02-14T16:17:28.345Z,63.15
2018-02-14T16:20:32.377Z,64.43
2018-02-14T16:23:35.658Z,64.41
2018-02-14T16:26:38.977Z,64.72
2018-02-14T16:29:42.304Z,64.75
2018-02-14T16:32:45.580Z,65.05
2018-02-14T16:35:48.974Z,65.41
2018-02-14T16:38:52.263Z,66.44
2018-02-14T16:41:55.584Z,66.72
2018-02-14T16:44:58.973Z,66.33
2018-02-14T16:48:02.260Z,66.33
2018-02-14T16:51:05.586Z,66.57
2018-02-14T16:54:08.856Z,66.80
2018-02-14T16:57:12.150Z,67.32
2018-02-14T17:00:15.450Z,67.44
2018-02-14T17:03:18.745Z,67.73
2018-02-14T17:06:22.991Z,67.98
2018-02-14T17:09:28.295Z,68.45
2018-02-14T17:12:31.917Z,68.66
2018-02-14T17:15:35.440Z,69.13
2018-02-14T17:18:39.512Z,69.07
2018-02-14T17:21:44.034Z,69.13
2018-02-14T17:24:48.129Z,69.33
2018-02-14T17:27:51.385Z,69.74
2018-02-14T17:30:54.656Z,70.04
2018-02-14T17:33:58.704Z,69.82
2018-02-14T17:37:01.986Z,70.09
2018-02-14T17:40:06.771Z,70.30
2018-02-14T17:43:10.057Z,70.45
2018-02-14T17:46:13.827Z,70.30
2018-02-14T17:49:17.418Z,71.10
2018-02-14T17:52:21.439Z,71.61
2018-02-14T17:55:24.736Z,71.60
2018-02-14T17:58:28.013Z,71.98
2018-02-14T18:01:33.312Z,71.95
2018-02-14T18:04:36.797Z,71.77
2018-02-14T18:07:40.126Z,71.99
2018-02-14T18:10:44.721Z,72.28
2018-02-14T18:13:48.032Z,72.41
2018-02-14T18:16:51.320Z,72.85
2018-02-14T18:19:55.579Z,72.51
2018-02-14T18:22:59.197Z,72.79
2018-02-14T18:26:03.188Z,72.89
2018-02-14T18:29:06.479Z,72.64
2018-02-14T18:32:09.825Z,72.87
2018-02-14T18:35:13.861Z,72.77
2018-02-14T18:38:17.138Z,72.86
2018-02-14T18:41:21.194Z,73.22
2018-02-14T18:44:24.482Z,73.48
2018-02-14T18:47:27.766Z,72.78
2018-02-14T18:50:31.058Z,72.54
2018-02-14T18:53:34.373Z,72.95
2018-02-14T18:56:37.674Z,73.24
2018-02-14T18:59:41.114Z,73.41
2018-02-14T19:02:44.500Z,73.54
2018-02-14T19:05:47.858Z,73.70
2018-02-14T19:08:51.192Z,74.29
2018-02-14T19:11:54.579Z,73.62
2018-02-14T19:14:57.848Z,73.14
2018-02-14T19:18:01.145Z,73.50
2018-02-14T19:21:04.587Z,73.02
2018-02-14T19:24:07.917Z,72.77
2018-02-14T19:27:11.993Z,73.06
2018-02-14T19:30:15.342Z,74.04
2018-02-14T19:33:19.393Z,74.22
2018-02-14T19:36:23.554Z,74.65
2018-02-14T19:39:27.622Z,74.42
2018-02-14T19:42:30.921Z,74.46
2018-02-14T19:45:36.151Z,74.86
2018-02-14T19:48:39.463Z,75.02
2018-02-14T19:51:42.764Z,75.00
2018-02-14T19:54:46.049Z,75.03
2018-02-14T19:57:49.873Z,75.11
2018-02-14T20:00:54.242Z,74.99
2018-02-14T20:03:57.532Z,74.96
2018-02-14T20:07:00.824Z,75.26
2018-02-14T20:10:05.213Z,75.15
2018-02-14T20:13:08.505Z,75.20
2018-02-14T20:16:11.796Z,75.07
2018-02-14T20:19:15.087Z,75.13
2018-02-14T20:22:18.417Z,75.46
2018-02-14T20:25:21.683Z,75.71
2018-02-14T20:28:24.972Z,75.25
2018-02-14T20:31:29.018Z,74.97
2018-02-14T20:34:32.328Z,74.65
2018-02-14T20:37:36.701Z,74.62
2018-02-14T20:40:40.742Z,74.65
2018-02-14T20:43:44.021Z,75.17
2018-02-14T20:46:48.110Z,75.23
2018-02-14T20:49:51.367Z,75.31
2018-02-14T20:52:54.688Z,75.72
2018-02-14T20:55:57.977Z,75.83
2018-02-14T20:59:01.268Z,75.41
2018-02-14T21:02:04.550Z,76.42
2018-02-14T21:05:07.841Z,76.55
2018-02-14T21:08:11.132Z,77.62
2018-02-14T21:11:14.449Z,79.05
2018-02-14T21:14:17.720Z,76.74
2018-02-14T21:17:21.018Z,76.73
2018-02-14T21:20:24.305Z,76.87
2018-02-14T21:23:28.348Z,77.71
2018-02-14T21:26:31.612Z,77.51
2018-02-14T21:29:35.753Z,77.16
2018-02-14T21:32:39.082Z,76.70
2018-02-14T21:35:42.370Z,76.42
2018-02-14T21:38:45.640Z,76.24
2018-02-14T21:41:48.924Z,75.79
2018-02-14T21:44:52.973Z,75.46
2018-02-14T21:47:56.245Z,76.07
2018-02-14T21:51:00.318Z,76.49
2018-02-14T21:54:03.589Z,75.61
2018-02-14T21:57:06.869Z,75.87
2018-02-14T22:00:10.150Z,75.82
2018-02-14T22:03:14.251Z,75.96
2018-02-14T22:06:17.553Z,76.50
2018-02-14T22:09:21.596Z,75.95
2018-02-14T22:12:24.869Z,76.41
2018-02-14T22:15:28.917Z,76.27
2018-02-14T22:18:32.180Z,76.18
2018-02-14T22:21:36.317Z,75.96
2018-02-14T22:24:43.822Z,75.55
2018-02-14T22:27:47.120Z,75.20
2018-02-14T22:30:51.088Z,75.37
2018-02-14T22:33:54.368Z,75.75
2018-02-14T22:36:57.653Z,76.35
2018-02-14T22:40:01.693Z,76.07
2018-02-14T22:43:04.959Z,75.80
2018-02-14T22:46:08.244Z,75.56
2018-02-14T22:49:11.550Z,75.80
2018-02-14T22:52:14.850Z,75.78
2018-02-14T22:55:18.152Z,75.44
2018-02-14T22:58:22.032Z,75.18
2018-02-14T23:01:25.309Z,75.57
2018-02-14T23:04:29.336Z,75.95
2018-02-14T23:07:33.386Z,75.72
2018-02-14T23:10:36.649Z,76.01
2018-02-14T23:13:41.973Z,75.80
2018-02-14T23:16:45.260Z,76.23
2018-02-14T23:19:48.533Z,75.93
2018-02-14T23:22:51.829Z,76.11
2018-02-14T23:25:55.119Z,76.22
2018-02-14T23:28:58.481Z,75.96
2018-02-14T23:32:02.530Z,76.00
2018-02-14T23:35:05.837Z,75.74
2018-02-14T23:38:09.915Z,75.37
2018-02-14T23:41:13.952Z,75.19
2018-02-14T23:44:18.306Z,75.56
2018-02-14T23:47:21.583Z,76.04
2018-02-14T23:50:24.866Z,75.84
2018-02-14T23:53:28.139Z,75.71
2018-02-14T23:56:32.179Z,75.67
2018-02-14T23:59:35.491Z,75.54
